LiveATC.Net - Listen to live air traffic control over the Internet! Contact LiveATC.net for advertising information

Find LiveATC Audio Streams


Airport/ARTCC Code

Frequency
(e.g., 124.400, 128.75)
Site-wide search

Browse LiveATC Feeds
LiveATC Coverage Map
Top 50 LiveATC Feeds
Bad Weather Areas

LiveATC FAQ
Offer a LiveATC Feed
Contact LiveATC.net
Press Inquiries

LiveATC on iPhone
LiveATC on Android

LiveATC Mobile
(Mobile browser)

ATC Audio Archives
Interesting Recordings

LiveATC Forums

Home Page
About LiveATC.net
Make a Donation
LiveATC Bookstore

Terms of Use
Privacy Policy

ATC/Radar Sites
U.S. ARTCC Freqs
Canadian Air Freqs

AIRMETs/SIGMETs

FAA Airport Status
Nat'l Airspace Status
Arrival Demand Charts


Server Software By:
Icecast.org
Liquidsoap


Current Potentially Bad Weather Airports
(updated every 30 minutes - sorted alphabetically by ICAO code)



This page lists LiveATC.net airport areas that may be interesting to listen to because of challenging flying (weather) conditions. Challenging weather conditions include low ceilings, limited visibility, high or gusty winds, or thunderstorms. This is an evolving new feature and comments are welcome.

Updated: Fri Mar 27 13:10:01 UTC 2015
Click on airport name to go to that airport area's feeds.

1C5/LL10/KLOT CTAF
klotKLOT 271235Z AUTO 04013KT 5SM -SN SCT020 BKN027 OVC035 M04/M07 A3013 RMK AO2 T10421068
CYHU Tower #1
cyhuCYHU 271234Z AUTO 01011KT 1 3/4SM -SN OVC020 M00/M02 A2977 RMK VIS VRB 1 1/4-3 SLP084
CYKF Tower
cykfCYKF 271243Z AUTO 30010KT 9SM -SN OVC011 M03/M05 A2984 RMK SLP117
CYMX Ground/Radio
cymxCYMX 271200Z 36004KT 350V050 2SM -SN BR SCT015 OVC028 M01/M01 A2978 RMK FG1SC2SC5 SLP089
CYOW Del/Gnd/Twr/App
cyowCYOW 271200Z 33014KT 3SM -SN SCT008 OVC037 M04/M06 A2981 RMK SC3SC5 /S01/ SLP100
CYUL Approach/Departure
cyulCYUL 271200Z 01008KT 1 1/2SM -SN BR BKN009 OVC025 00/M00 A2978 RMK SF6SC2 SLP085
CYVO Gnd/RDO/Center
WX MAP UNAVAILABLECYVO 271200Z 35017KT 15SM -SN DRSN BKN016 BKN240 M20/M23 A3000 RMK SC6CI1 SLP191
EPWA Tower
WX MAP UNAVAILABLEEPWA 271230Z 28011KT 6000 -SHRA SCT043CB 15/11 Q1008 TEMPO 5000 TSRA
KACK Tower
kackKACK 271253Z 36013KT 4SM BR OVC003 04/03 A2967 RMK AO2 RAB05E47 SLP047 P0003 T00440033
KAWO CTAF
kawoKAWO 271255Z AUTO 00000KT 1/2SM OVC001 05/03 A3005 RMK AO1
MA/NH/RI/CT Area CTAF
keenKEEN 271255Z AUTO 00000KT 2 1/2SM BKN014 02/01 A2973 RMK AO1
KBTV Del/Gnd/Twr/App
kbtvKBTV 271254Z 00000KT 3SM -SN BR BKN003 OVC009 02/00 A2975 RMK SNB16 SLP077 P0000
KBUF Tower/App
kbufKBUF 271254Z 29007KT 10SM -SN BKN015 OVC065 M01/M04 A2985 RMK AO2 SNB20 SLP115 CIG 013V018 P0000 T10111039
KCAK Del/Gnd/Twr/App
kcakKCAK 271251Z 34011KT 3SM -SN OVC012 M01/M04 A2990 RMK AO2 SLP137 P0000 T10111044
KCLE App/Dep
kcleKCLE 271251Z 34012KT 1 3/4SM -SN BKN016 OVC022 M03/M07 A2998 RMK AO2 SLP160 P0000 T10331067
KDTW Twr/App
kdtwKDTW 271253Z 31012KT 10SM -SN BKN030 BKN100 M04/M11 A3000 RMK AO2 SNE19B52 SLP166 P0000 T10441106 $
KFNT Del/Gnd/Twr/App #1
kfntKFNT 271253Z 32010KT 5SM -SN FEW020 BKN028 OVC050 M06/M11 A3002 RMK AO2 SNB16 SLP175 P0000 T10561106
KGEG Tower
kgegKGEG 271253Z 06007KT 1/2SM R03/2400FT BR BKN001 OVC200 06/06 A3012 RMK AO2 SFC VIS 3/4 SLP200 T00610061
KGFL CTAF/App
kgflKGFL 271253Z AUTO 17004KT 1/4SM FG VV002 02/01 A2974 RMK AO2 SLP079 T00170011
KHRO CTAF/ZME/Misc
khroKHRO 271253Z AUTO 34004KT 10SM OVC008 03/02 A3010 RMK AO2 RAB01E10 CIG 006V011 SLP198 P0000 T00330022
KHYA Twr/Cape App/ZBW/ZNY
khyaKHYA 271256Z 35011G19KT 6SM BR OVC003 03/03 A2969 RMK AO2 RAE16 SLP054 P0000 T00330028
KJXN Del/Gnd/Twr/App
kjxnKJXN 271256Z 34014KT 8SM -SN OVC029 M07/M12 A3002 RMK AO2 SNB50 SLP176 P0000 T10671122
KLZU Ground/Tower
klzuKLZU 271245Z 26008KT 10SM OVC008 08/05 A2976 RMK ATIS C RWY 25 LL
KMDW Del/Ground
kmdwKMDW 271253Z 35014KT 10SM -SN SCT027 OVC037 M03/M09 A3014 RMK AO2 SLP218 P0000 T10331089
KMLU Del/Gnd/Twr/App
kmluKMLU 271253Z 00000KT 1/4SM FG VV001 05/05 A3012 RMK AO2 SLP198 T00500050
KMSO Gnd/Twr/App/ZLC/ZSE
kmsoKMSO 271253Z 00000KT 3/4SM BR VV002 01/00 A3024 RMK AO2 SLP251 T00060000
KPBI Del/Gnd/Twr/App/ZMA
kpbiKPBI 271253Z 20007KT 7SM TS SCT024CB BKN100 23/19 A2992 RMK AO2 RAE1159 SLP129 OCNL LTGIC SE-S TS SE-S MOV NE P0000 T02280194
KPLU/S50 CTAF/KTIW Twr
kpluKPLU 271235Z AUTO 00000KT 2 1/2SM BR OVC002 06/06 A3003 RMK AO2
KPTK Tower
kptkKPTK 271253Z 33010KT 8SM -SN FEW021 OVC042 M07/M11 A2997 RMK AO2 SLP161 P0000 T10671111
KROC Tower/Approach
krocKROC 271254Z 28008KT 7SM -SN OVC017 01/M02 A2983 RMK AO2 SNB1156 SLP108 P0000 T00111017
KSAW Gnd/Twr/ZMP
WX MAP UNAVAILABLEKSAW 271250Z 02014KT 2SM -SN OVC020 M12/M15 A3017
KSTL Del/Gnd/Twr
kstlKSTL 271251Z 36007KT 9SM -SN SCT047 SCT065 BKN200 01/M03 A3015 RMK AO2 SLP214 P0000 T00111033
KTRK CTAF/Unicom
ktrkKTRK 271235Z AUTO 00000KT 1/4SM FZFG OVC002 M02/M02 A3032 RMK AO2
KUUU CTAF/Clearance
kuuuKUUU 271253Z AUTO 36009KT 10SM -RA BKN005 OVC009 04/03 A2970 RMK AO2 SLP058 P0002 T00390033
KWVI CTAF/NORCAL App #1
kwviKWVI 271253Z AUTO 00000KT 1/4SM FG VV002 12/11 A3011 RMK AO2 SLP196 T01220111
LMML Tower
WX MAP UNAVAILABLELMML 271245Z 32024G37KT 9999 BKN015 15/12 Q1006 TEMPO BKN013
LTFJ Del/Gnd/Twr
WX MAP UNAVAILABLELTFJ 271243Z 24006KT 180V280 9999 TS FEW020CB BKN025 BKN080 21/12 Q1006 BECMG 18013KT TEMPO FM1300 -TSRA RMK RWY24 05003KT 320V110
LZIB Del/Twr/App
WX MAP UNAVAILABLELZIB 271230Z 31020G30KT 270V340 9999 FEW028 SCT045 BKN055 10/03 Q1012 NOSIG
PASC CTAF/Unicom/AFIS/App
WX MAP UNAVAILABLEPASC 271253Z 10005KT 10SM OVC005 M17/M20 A2963 RMK AO2 SLP034 T11721200
SGAS Gnd/Twr/App
WX MAP UNAVAILABLESGAS 271300Z 24004KT 8000 -DZBR OVC007 22/21 Q1016